Upstream stations:
Downstream station:
SHEF ID: CHNK1 Cheney Lake
STATION TYPE: RESERVOIR
Flood Pool: Bottom = 1421.60, Top = 1429.00
PRECIP ELEVATION STORAGE INFLOW RELEASE WIND-DIRWIND-SPEED VOLTAGE
in ft ac-ft cfs cfs deg mph volt
Ccp-Rev Ccp-Rev Ccp-Rev Rev-Regi Rev-Regi Ccp-Rev Ccp-Rev Ccp-Rev
(US/Central)
08/21 00:00 0.64 1420.54 157163 1829 0 ---- ---- 13.11
08/21 01:00 0.00 1420.57 157437 980 0 ---- ---- 13.11
08/21 02:00 0.03 1420.54 157163 1020 0 ---- ---- 13.12
08/21 03:00 0.16 1420.53 157071 106 0 ---- ---- 13.12
08/21 04:00 0.00 1420.55 157254 106 0 ---- ---- 13.13
08/21 05:00 0.00 1420.54 157163 106 0 ---- ---- 13.13
08/21 06:00 0.00 1420.54 157163 40 0 ---- ---- 13.13
08/21 07:00 0.00 1420.54 157163 0 0 ---- ---- 13.14
08/21 08:00 0.00 1420.56 157346 0 0 ---- ---- 13.14
08/21 09:00 0.00 1420.57 157437 0 0 ---- ---- 13.14
08/21 10:00 0.00 1420.56 157346 0 0 ---- ---- 13.14
08/21 11:00 0.00 1420.56 157346 0 0 ---- ---- 13.14
08/21 12:00 0.00 1420.55 157254 0 0 ---- ---- 13.14
08/21 13:00 0.00 1420.54 157163 0 0 ---- ---- 13.14
08/21 14:00 0.00 1420.53 157071 0 0 ---- ---- 13.15
08/21 15:00 0.00 1420.53 157071 0 0 ---- ---- 13.13
08/21 16:00 0.00 1420.53 157071 0 0 ---- ---- 13.14
08/21 17:00 0.00 1420.52 156980 0 0 ---- ---- 13.13
08/21 18:00 0.00 1420.52 156980 0 0 ---- ---- 13.13
08/21 19:00 0.00 1420.52 156980 0 0 ---- ---- 13.13
08/21 20:00 0.00 1420.52 156980 0 0 ---- ---- 13.14
08/21 21:00 0.00 1420.53 157071 0 0 ---- ---- 13.14
08/21 22:00 0.00 1420.53 157071 0 0 ---- ---- 13.13
08/21 23:00 0.00 1420.52 156980 0 0 ---- ---- 13.13